Time;durP1;ratioP1;P1;durP2;ratioP2;P2;SDS_P1;SDS_P2;PMS_P1;PMS_P2;Temp;Humidity;BMP_temperature;BMP_pressure;BME280_temperature;BME280_humidity;BME280_pressure;Samples;Min_cycle;Max_cycle;Signal;HPM_P1;HPM_P2
2021/10/02 00:35:33;;;;;;;;;;;;;;;7.11;63.27;101872.94;4877368;29;20411;-79
2021/10/02 00:46:02;;;;;;;;;;;;;;;7.03;62.90;101878.72;4891058;29;20013;-77
2021/10/02 00:48:29;;;;;;;;;;;;;;;7.09;63.17;101868.56;4860819;29;19930;-76
2021/10/02 00:50:58;;;;;;;;;;;;;;;7.06;63.05;101871.03;4890759;29;19927;-77
2021/10/02 00:53:24;;;;;;;;;;;;;;;7.05;63.43;101869.31;4876073;29;19928;-78
2021/10/02 00:55:50;;;;;;;;;;;;;;;7.07;63.29;101864.16;4886424;29;19928;-78
2021/10/02 00:58:17;;;;;;;;;;;;;;;7.12;63.26;101874.69;4860396;29;19979;-77
2021/10/02 01:00:45;;;;;;;;;;;;;;;7.12;62.98;101870.41;4877023;29;20331;-76
2021/10/02 01:03:29;;;;;;;;;;;;;;;7.11;63.00;101871.22;4884834;29;19924;-77
2021/10/02 01:06:13;;;;;;;;;;;;;;;7.09;63.30;101876.34;4875867;29;19928;-78
2021/10/02 01:08:47;;;;;;;;;;;;;;;7.05;62.79;101873.59;4876691;29;19950;-76
2021/10/02 01:11:32;;;;;;;;;;;;;;;7.03;63.19;101870.03;4891385;29;20488;-78
2021/10/02 01:14:03;;;;;;;;;;;;;;;7.06;63.14;101876.22;4878265;29;19927;-77
2021/10/02 01:16:31;;;;;;;;;;;;;;;7.06;63.01;101873.63;4882354;29;19943;-77
2021/10/02 01:18:59;;;;;;;;;;;;;;;7.08;63.14;101873.69;4897665;29;19923;-77
2021/10/02 01:21:47;;;;;;;;;;;;;;;7.12;63.29;101870.41;4880828;29;19924;-77
2021/10/02 01:24:13;;;;;;;;;;;;;;;7.15;63.09;101870.53;4878934;29;19928;-78
2021/10/02 01:26:57;;;;;;;;;;;;;;;7.13;63.14;101871.28;4878559;29;19935;-77
2021/10/02 01:29:24;;;;;;;;;;;;;;;7.09;63.06;101871.16;4892648;29;19979;-76
2021/10/02 01:32:09;;;;;;;;;;;;;;;7.07;63.21;101871.94;4875924;29;20413;-79
2021/10/02 01:34:49;;;;;;;;;;;;;;;7.06;63.13;101867.56;4876225;29;19963;-77
2021/10/02 01:48:08;;;;;;;;;;;;;;;7.01;63.52;101863.91;4884135;29;19931;-79
2021/10/02 01:50:36;;;;;;;;;;;;;;;7.00;63.15;101863.06;4875966;29;19927;-77
2021/10/02 01:53:04;;;;;;;;;;;;;;;7.01;63.24;101863.91;4859147;29;19931;-77
2021/10/02 01:55:31;;;;;;;;;;;;;;;7.01;63.20;101861.34;4875469;29;21907;-77
2021/10/02 01:57:58;;;;;;;;;;;;;;;7.02;63.37;101868.28;4875887;29;20015;-79
2021/10/02 02:00:24;;;;;;;;;;;;;;;7.00;63.17;101859.56;4873929;29;19923;-77
2021/10/02 02:02:52;;;;;;;;;;;;;;;6.96;63.27;101874.09;4874054;29;19935;-76
2021/10/02 02:05:19;;;;;;;;;;;;;;;6.96;63.19;101866.34;4874125;29;20448;-77
2021/10/02 02:07:48;;;;;;;;;;;;;;;6.98;63.48;101866.38;4888843;29;20018;-77
2021/10/02 02:10:14;;;;;;;;;;;;;;;7.00;63.16;101862.16;4869629;29;20459;-77
2021/10/02 02:12:41;;;;;;;;;;;;;;;6.98;63.58;101866.38;4874026;29;20308;-76
2021/10/02 02:15:11;;;;;;;;;;;;;;;6.93;63.32;101864.53;4874087;29;19932;-78
2021/10/02 02:17:38;;;;;;;;;;;;;;;6.92;63.27;101872.22;4873753;29;20015;-78
2021/10/02 02:20:04;;;;;;;;;;;;;;;6.87;63.42;101871.16;4873939;29;19924;-78
2021/10/02 02:22:30;;;;;;;;;;;;;;;6.86;63.83;101878.03;4874489;29;20022;-76
2021/10/02 02:24:56;;;;;;;;;;;;;;;6.86;63.13;101872.88;4889546;29;20031;-78
2021/10/02 02:27:22;;;;;;;;;;;;;;;6.84;63.34;101877.09;4875653;29;21079;-79
2021/10/02 02:29:48;;;;;;;;;;;;;;;6.78;63.36;101876.84;4858231;29;19957;-77
2021/10/02 02:32:14;;;;;;;;;;;;;;;6.77;63.59;101877.66;4859440;29;20431;-77
2021/10/02 02:34:40;;;;;;;;;;;;;;;6.77;63.28;101870.81;4875264;29;20033;-78
2021/10/02 02:37:06;;;;;;;;;;;;;;;6.78;63.34;101875.16;4863850;29;19931;-79
2021/10/02 02:39:31;;;;;;;;;;;;;;;6.82;63.51;101885.63;4869947;29;20406;-77
2021/10/02 02:41:57;;;;;;;;;;;;;;;6.85;63.53;101875.38;4884831;29;19988;-76
2021/10/02 02:44:22;;;;;;;;;;;;;;;6.80;63.49;101872.63;4875668;29;19924;-77
2021/10/02 02:46:53;;;;;;;;;;;;;;;6.79;63.53;101873.44;4873417;29;20018;-77
2021/10/02 02:49:24;;;;;;;;;;;;;;;6.78;63.41;101875.16;4874646;29;20360;-77
2021/10/02 02:51:49;;;;;;;;;;;;;;;6.78;63.56;101875.16;4874210;29;20384;-77
2021/10/02 02:54:27;;;;;;;;;;;;;;;6.77;63.69;101877.66;4874592;29;19942;-76
2021/10/02 02:56:54;;;;;;;;;;;;;;;6.71;63.11;101874.84;4891996;29;19931;-77
2021/10/02 02:59:28;;;;;;;;;;;;;;;6.71;64.00;101880.91;4893231;29;19974;-78
2021/10/02 03:01:55;;;;;;;;;;;;;;;6.71;63.84;101880.91;4895304;29;19924;-81
2021/10/02 03:04:26;;;;;;;;;;;;;;;6.75;64.06;101881.88;4879381;29;20375;-78
2021/10/02 03:06:51;;;;;;;;;;;;;;;6.82;63.52;101877.88;4873209;29;20455;-78
2021/10/02 03:09:18;;;;;;;;;;;;;;;6.85;63.85;101880.56;4858492;29;19924;-77
2021/10/02 03:11:44;;;;;;;;;;;;;;;6.88;63.94;101883.25;4872356;29;19930;-79
2021/10/02 03:14:10;;;;;;;;;;;;;;;6.86;63.65;101878.03;4872727;29;19932;-77
2021/10/02 03:16:36;;;;;;;;;;;;;;;6.87;63.59;101871.16;4874747;29;20397;-78
2021/10/02 03:19:04;;;;;;;;;;;;;;;6.89;63.74;101882.44;4889548;29;19927;-78
2021/10/02 03:21:30;;;;;;;;;;;;;;;6.85;63.45;101875.38;4876140;29;19928;-77
2021/10/02 03:23:56;;;;;;;;;;;;;;;6.76;63.45;101881.06;4881857;29;19927;-77
2021/10/02 03:26:22;;;;;;;;;;;;;;;6.77;63.72;101877.66;4876355;29;19955;-78
2021/10/02 03:28:49;;;;;;;;;;;;;;;6.77;63.75;101875.97;4882764;29;19967;-78
2021/10/02 03:31:16;;;;;;;;;;;;;;;6.53;63.50;101831.88;4876818;29;19930;-78
2021/10/02 03:33:41;;;;;;;;;;;;;;;6.77;63.53;101869.91;4875364;29;19934;-77
2021/10/02 03:36:08;;;;;;;;;;;;;;;6.80;63.45;101874.34;4859472;29;19928;-78
2021/10/02 03:38:34;;;;;;;;;;;;;;;6.77;63.68;101873.38;4873693;29;19924;-77
2021/10/02 03:41:00;;;;;;;;;;;;;;;6.70;63.41;101868.78;4878705;29;19934;-78
2021/10/02 03:43:29;;;;;;;;;;;;;;;6.68;63.98;101865.25;4888361;29;20591;-80
2021/10/02 03:45:55;;;;;;;;;;;;;;;6.65;63.82;101870.28;4889150;29;20030;-79
2021/10/02 03:48:20;;;;;;;;;;;;;;;6.65;63.90;101878.06;4873719;29;19923;-77
2021/10/02 03:50:46;;;;;;;;;;;;;;;6.63;63.82;101871.94;4857379;29;19927;-78
2021/10/02 03:53:11;;;;;;;;;;;;;;;6.60;63.78;101870.13;4872820;29;20052;-77
2021/10/02 03:55:37;;;;;;;;;;;;;;;6.64;63.55;101873.69;4884574;29;20404;-78
2021/10/02 03:58:03;;;;;;;;;;;;;;;6.69;63.91;101873.91;4878407;29;19931;-78
2021/10/02 04:00:28;;;;;;;;;;;;;;;6.73;63.96;101880.97;4859112;29;20320;-77
2021/10/02 04:02:54;;;;;;;;;;;;;;;6.75;63.32;101876.72;4874398;29;19931;-77
2021/10/02 04:05:20;;;;;;;;;;;;;;;6.75;63.61;101881.88;4873388;29;20033;-78
2021/10/02 04:07:45;;;;;;;;;;;;;;;6.74;63.77;101881.03;4868072;29;20014;-77
2021/10/02 04:10:11;;;;;;;;;;;;;;;6.77;63.74;101877.66;4872702;29;20124;-77
2021/10/02 04:12:36;;;;;;;;;;;;;;;6.75;63.76;101869.84;4874477;29;20376;-78
2021/10/02 04:15:02;;;;;;;;;;;;;;;6.74;63.19;101875.84;4873309;29;19928;-78
2021/10/02 04:17:29;;;;;;;;;;;;;;;6.75;63.58;101881.88;4889416;29;19924;-78
2021/10/02 04:19:54;;;;;;;;;;;;;;;6.77;63.65;101877.66;4875756;29;19923;-77
2021/10/02 04:22:20;;;;;;;;;;;;;;;6.83;63.71;101875.31;4859021;29;19928;-76
2021/10/02 04:24:45;;;;;;;;;;;;;;;6.87;63.37;101877.22;4873838;29;20075;-77
2021/10/02 04:27:11;;;;;;;;;;;;;;;6.92;63.43;101880.88;4870928;29;19935;-78
2021/10/02 04:29:37;;;;;;;;;;;;;;;6.94;63.31;101873.16;4869901;29;19970;-78
2021/10/02 04:32:02;;;;;;;;;;;;;;;6.98;63.34;101871.56;4873512;29;19924;-77
2021/10/02 04:34:28;;;;;;;;;;;;;;;6.97;63.28;101867.22;4872890;29;19927;-79
2021/10/02 04:36:53;;;;;;;;;;;;;;;6.94;62.86;101875.75;4873084;29;19923;-79
2021/10/02 04:39:19;;;;;;;;;;;;;;;6.98;63.24;101871.56;4885309;29;19928;-76
2021/10/02 04:41:45;;;;;;;;;;;;;;;7.06;63.30;101865.00;4868617;29;19924;-77
2021/10/02 04:44:10;;;;;;;;;;;;;;;7.16;63.36;101871.41;4873484;29;19928;-77
2021/10/02 04:46:36;;;;;;;;;;;;;;;7.28;63.46;101873.56;4875014;29;19950;-76
2021/10/02 04:49:02;;;;;;;;;;;;;;;7.40;63.12;101879.22;4891110;29;19924;-78
2021/10/02 04:51:28;;;;;;;;;;;;;;;7.48;63.12;101872.63;4873890;29;19928;-78
2021/10/02 04:53:53;;;;;;;;;;;;;;;7.63;63.08;101876.59;4876008;29;20371;-78
2021/10/02 04:56:20;;;;;;;;;;;;;;;7.72;62.99;101878.66;4876366;29;20403;-78
2021/10/02 04:58:46;;;;;;;;;;;;;;;7.78;62.59;101874.56;4875687;29;20004;-77
2021/10/02 05:01:12;;;;;;;;;;;;;;;7.88;62.66;101886.13;4885713;29;20265;-78
2021/10/02 05:03:39;;;;;;;;;;;;;;;8.03;62.65;101884.91;4886713;29;19923;-79
2021/10/02 05:06:05;;;;;;;;;;;;;;;8.12;62.35;101885.25;4875709;29;20459;-77
2021/10/02 05:08:31;;;;;;;;;;;;;;;8.24;62.52;101885.66;4886763;29;19924;-81
2021/10/02 05:10:58;;;;;;;;;;;;;;;8.31;62.08;101888.44;4870229;29;20407;-79
2021/10/02 05:13:24;;;;;;;;;;;;;;;8.34;61.93;101884.25;4877217;29;19924;-79
2021/10/02 05:16:01;;;;;;;;;;;;;;;8.51;62.09;101879.66;4876489;29;20022;-77
2021/10/02 05:18:33;;;;;;;;;;;;;;;8.68;61.80;101885.41;4879725;29;19939;-78
2021/10/02 05:21:08;;;;;;;;;;;;;;;8.85;61.60;101885.06;4893940;29;20340;-77
2021/10/02 05:23:37;;;;;;;;;;;;;;;9.03;61.16;101887.34;4891329;29;20230;-78
2021/10/02 05:26:02;;;;;;;;;;;;;;;9.11;61.19;101893.63;4858053;29;19924;-77
2021/10/02 05:28:31;;;;;;;;;;;;;;;9.21;60.78;101889.59;4870050;29;19927;-78
2021/10/02 05:30:57;;;;;;;;;;;;;;;9.27;60.98;101892.38;4878357;29;20035;-76
2021/10/02 05:33:23;;;;;;;;;;;;;;;9.46;60.85;101901.63;4893193;29;20037;-79
2021/10/02 05:35:49;;;;;;;;;;;;;;;9.64;60.25;101898.66;4869727;29;19968;-78
2021/10/02 05:38:19;;;;;;;;;;;;;;;9.68;59.70;101898.75;4874801;29;19928;-78
2021/10/02 05:40:45;;;;;;;;;;;;;;;9.68;59.54;101899.66;4871955;29;20062;-78
2021/10/02 05:43:11;;;;;;;;;;;;;;;9.79;59.52;101897.34;4859963;29;19932;-77
2021/10/02 05:45:37;;;;;;;;;;;;;;;9.91;59.35;101887.25;4859472;29;19931;-80
2021/10/02 05:48:03;;;;;;;;;;;;;;;10.00;59.20;101891.84;4886911;29;19946;-79
2021/10/02 05:50:29;;;;;;;;;;;;;;;10.09;59.19;101889.50;4868841;29;20637;-78
2021/10/02 05:52:54;;;;;;;;;;;;;;;10.27;59.46;101892.50;4876856;29;20574;-77
2021/10/02 05:55:20;;;;;;;;;;;;;;;10.50;59.11;101893.13;4868979;29;19932;-80
2021/10/02 05:57:48;;;;;;;;;;;;;;;10.72;58.73;101888.44;4858889;29;20022;-81
2021/10/02 06:00:37;;;;;;;;;;;;;;;10.94;58.42;101887.22;4892102;29;19988;-78
2021/10/02 06:03:06;;;;;;;;;;;;;;;11.06;57.98;101884.00;4890140;29;20572;-78
2021/10/02 06:05:48;;;;;;;;;;;;;;;11.14;57.72;101883.31;4857894;29;19946;-78
2021/10/02 06:11:34;;;;;;;;;;;;;;;11.60;57.12;101885.16;4847757;29;20460;-78
2021/10/02 06:14:11;;;;;;;;;;;;;;;11.82;56.67;101881.25;4886758;29;19971;-78
2021/10/02 06:16:40;;;;;;;;;;;;;;;12.02;56.31;101880.78;4875781;29;19924;-79
2021/10/02 06:19:05;;;;;;;;;;;;;;;12.22;56.24;101883.75;4860876;29;19924;-79
2021/10/02 06:21:41;;;;;;;;;;;;;;;12.42;56.00;101878.00;4875382;29;20328;-77
2021/10/02 06:24:34;;;;;;;;;;;;;;;12.47;55.23;101884.13;4888600;23;19931;-79
2021/10/02 06:27:06;;;;;;;;;;;;;;;12.54;55.46;101877.31;4894076;29;20323;-77
2021/10/02 06:29:38;;;;;;;;;;;;;;;12.74;55.47;101875.00;4877703;29;19923;-78
2021/10/02 06:32:06;;;;;;;;;;;;;;;12.99;55.02;101881.47;4907862;29;19924;-80
2021/10/02 06:34:32;;;;;;;;;;;;;;;13.13;54.75;101883.41;4894142;29;19934;-77
2021/10/02 06:36:58;;;;;;;;;;;;;;;13.04;54.27;101879.78;4891757;29;19966;-79
2021/10/02 06:39:26;;;;;;;;;;;;;;;13.02;53.94;101885.84;4878638;29;20512;-79
2021/10/02 06:41:52;;;;;;;;;;;;;;;12.84;54.44;101850.78;4894100;29;19927;-79
2021/10/02 06:44:18;;;;;;;;;;;;;;;13.30;54.24;101879.25;4907513;29;19943;-81
2021/10/02 06:46:44;;;;;;;;;;;;;;;13.40;53.96;101878.56;4878584;29;19930;-79
2021/10/02 06:49:09;;;;;;;;;;;;;;;13.56;53.61;101878.75;4861363;29;19923;-79
2021/10/02 06:51:35;;;;;;;;;;;;;;;13.79;52.69;101875.50;4893523;29;20369;-80
2021/10/02 06:54:00;;;;;;;;;;;;;;;13.92;52.82;101887.00;4890198;29;19931;-77
2021/10/02 06:56:26;;;;;;;;;;;;;;;14.11;52.37;101881.06;4892931;29;20347;-79
2021/10/02 06:58:51;;;;;;;;;;;;;;;14.31;51.87;101876.03;4891521;29;19935;-79
2021/10/02 07:01:17;;;;;;;;;;;;;;;14.48;52.16;101871.78;4873139;29;20367;-80
2021/10/02 07:03:43;;;;;;;;;;;;;;;14.69;51.66;101873.72;4892194;29;19924;-79
2021/10/02 07:06:08;;;;;;;;;;;;;;;14.84;50.82;101878.19;4883549;29;20391;-79
2021/10/02 07:08:34;;;;;;;;;;;;;;;14.68;50.62;101875.44;4885856;29;20439;-80
2021/10/02 07:10:59;;;;;;;;;;;;;;;14.34;50.25;101876.94;4871029;29;19935;-80
2021/10/02 07:13:25;;;;;;;;;;;;;;;14.16;50.87;101884.63;4890269;29;19923;-78
2021/10/02 07:15:52;;;;;;;;;;;;;;;13.96;51.22;101883.56;4872446;29;20272;-78
2021/10/02 07:18:23;;;;;;;;;;;;;;;13.88;51.09;101885.19;4893363;29;19928;-78
2021/10/02 07:20:57;;;;;;;;;;;;;;;13.76;51.41;101863.28;4872594;29;19928;-78
2021/10/02 07:23:24;;;;;;;;;;;;;;;13.76;51.77;101871.13;4885538;29;19980;-77
2021/10/02 07:25:50;;;;;;;;;;;;;;;14.20;50.35;101882.03;4871967;29;19927;-77
2021/10/02 07:28:17;;;;;;;;;;;;;;;14.60;50.75;101874.50;4871547;29;19931;-79
2021/10/02 07:30:46;;;;;;;;;;;;;;;14.58;48.70;101878.84;4858311;29;20422;-81
2021/10/02 07:33:15;;;;;;;;;;;;;;;14.42;50.02;101875.22;4873450;29;19967;-79
2021/10/02 07:35:40;;;;;;;;;;;;;;;14.44;49.52;101877.03;4878836;29;19932;-79
2021/10/02 07:38:06;;;;;;;;;;;;;;;14.42;50.20;101878.75;4888374;29;19992;-77
2021/10/02 07:40:32;;;;;;;;;;;;;;;14.96;49.66;101870.41;4884884;29;19928;-79
2021/10/02 07:43:01;;;;;;;;;;;;;;;15.69;48.86;101867.22;4879889;29;19923;-79
2021/10/02 07:45:27;;;;;;;;;;;;;;;16.12;46.45;101867.31;4875710;29;19952;-78
2021/10/02 07:47:53;;;;;;;;;;;;;;;16.23;46.94;101859.44;4870463;29;20345;-79
2021/10/02 07:50:19;;;;;;;;;;;;;;;16.31;46.16;101865.59;4876177;29;19928;-76
2021/10/02 07:52:45;;;;;;;;;;;;;;;16.48;46.89;101860.31;4856175;29;20014;-78
2021/10/02 07:55:13;;;;;;;;;;;;;;;16.39;46.76;101865.59;4875987;29;21113;-78
2021/10/02 07:57:39;;;;;;;;;;;;;;;16.69;46.54;101858.53;4873775;29;19955;-78
2021/10/02 08:00:05;;;;;;;;;;;;;;;16.85;46.06;101855.03;4863852;29;20371;-78
2021/10/02 08:02:41;;;;;;;;;;;;;;;16.79;45.60;101862.03;4876335;29;19924;-77
2021/10/02 08:05:08;;;;;;;;;;;;;;;16.53;45.78;101861.19;4872181;29;19980;-77
2021/10/02 08:07:35;;;;;;;;;;;;;;;16.58;45.82;101862.94;4874137;29;19952;-76
2021/10/02 08:10:01;;;;;;;;;;;;;;;16.62;45.74;101864.69;4876118;29;19927;-77
2021/10/02 08:12:26;;;;;;;;;;;;;;;16.74;45.67;101855.91;4873168;29;19924;-75
2021/10/02 08:14:52;;;;;;;;;;;;;;;16.98;45.39;101860.25;4874655;29;19956;-78
2021/10/02 08:17:18;;;;;;;;;;;;;;;17.38;45.46;101857.47;4882738;29;19930;-77
2021/10/02 08:19:49;;;;;;;;;;;;;;;17.73;43.93;101859.06;4881021;29;19930;-80
2021/10/02 08:22:15;;;;;;;;;;;;;;;17.50;44.06;101863.59;4880528;29;19924;-79
2021/10/02 08:24:41;;;;;;;;;;;;;;;17.22;44.03;101861.06;4878407;29;19931;-77
2021/10/02 08:27:07;;;;;;;;;;;;;;;17.20;43.68;101860.19;4873686;29;19931;-77
2021/10/02 08:29:32;;;;;;;;;;;;;;;17.43;44.33;101857.47;4873474;29;20380;-76
2021/10/02 08:31:58;;;;;;;;;;;;;;;17.56;44.22;101863.53;4875797;29;19940;-77
2021/10/02 08:34:24;;;;;;;;;;;;;;;17.20;44.24;101854.94;4862447;29;19932;-76
2021/10/02 08:36:49;;;;;;;;;;;;;;;16.99;43.60;101856.75;4875187;29;20463;-76
2021/10/02 08:39:16;;;;;;;;;;;;;;;16.95;44.41;101854.97;4860533;29;19927;-77
2021/10/02 08:41:43;;;;;;;;;;;;;;;17.12;44.51;101854.97;4872480;29;19931;-77
2021/10/02 08:44:10;;;;;;;;;;;;;;;17.15;43.75;101858.44;4875671;29;19928;-79
2021/10/02 08:46:36;;;;;;;;;;;;;;;17.08;43.67;101848.84;4873978;29;19924;-76
2021/10/02 08:49:20;;;;;;;;;;;;;;;17.06;43.45;101847.97;4875060;29;19927;-76
2021/10/02 08:51:48;;;;;;;;;;;;;;;16.69;43.22;101848.03;4874035;29;20014;-78
2021/10/02 08:54:16;;;;;;;;;;;;;;;16.16;44.54;101849.81;4875413;29;19932;-80
2021/10/02 08:56:42;;;;;;;;;;;;;;;15.84;43.52;101854.13;4878620;29;19999;-77
2021/10/02 08:59:08;;;;;;;;;;;;;;;15.06;44.47;101855.59;4875836;29;21411;-75
2021/10/02 09:01:33;;;;;;;;;;;;;;;14.86;45.65;101848.50;4893296;29;19935;-75
2021/10/02 09:03:59;;;;;;;;;;;;;;;14.98;45.29;101852.94;4876088;29;19923;-75
2021/10/02 09:06:24;;;;;;;;;;;;;;;15.24;44.95;101857.44;4874159;29;20027;-76
2021/10/02 09:08:50;;;;;;;;;;;;;;;15.15;44.73;101842.53;4874872;29;19932;-79
2021/10/02 09:11:16;;;;;;;;;;;;;;;15.26;44.73;101852.19;4877977;29;20032;-74
2021/10/02 09:13:41;;;;;;;;;;;;;;;15.12;43.89;101853.00;4874925;29;19928;-77
2021/10/02 09:16:07;;;;;;;;;;;;;;;15.21;44.12;101845.19;4876212;29;19928;-76
2021/10/02 09:18:33;;;;;;;;;;;;;;;15.23;43.51;101845.19;4862160;29;19924;-75
2021/10/02 09:21:06;;;;;;;;;;;;;;;15.29;43.72;101845.22;4879621;29;20026;-78
2021/10/02 09:23:39;;;;;;;;;;;;;;;15.24;43.45;101846.06;4885332;29;19923;-75
2021/10/02 09:26:05;;;;;;;;;;;;;;;14.63;43.32;101853.56;4880262;29;19975;-75
2021/10/02 09:28:51;;;;;;;;;;;;;;;14.19;44.47;101856.72;4875147;29;19975;-76
2021/10/02 09:31:17;;;;;;;;;;;;;;;14.08;44.66;101859.25;4875275;29;19923;-75
2021/10/02 09:33:43;;;;;;;;;;;;;;;13.88;44.80;101856.41;4873379;29;19928;-77
2021/10/02 09:36:22;;;;;;;;;;;;;;;13.82;44.91;101858.09;4871011;29;19934;-76
2021/10/02 09:38:51;;;;;;;;;;;;;;;13.95;45.02;101850.38;4876698;29;20122;-75
2021/10/02 09:41:17;;;;;;;;;;;;;;;13.92;44.85;101851.22;4876844;29;20451;-76
2021/10/02 09:43:50;;;;;;;;;;;;;;;13.71;44.23;101847.53;4881081;29;19974;-75
2021/10/02 09:46:16;;;;;;;;;;;;;;;13.74;45.12;101841.47;4893109;29;20387;-76
2021/10/02 09:48:51;;;;;;;;;;;;;;;13.69;44.26;101848.38;4876693;29;20438;-75
2021/10/02 09:51:17;;;;;;;;;;;;;;;13.59;44.13;101846.50;4874880;29;19931;-75
2021/10/02 09:53:43;;;;;;;;;;;;;;;13.31;44.71;101854.00;4875085;29;19928;-75
2021/10/02 09:56:12;;;;;;;;;;;;;;;13.02;45.28;101847.53;4875303;29;19927;-75
2021/10/02 09:58:38;;;;;;;;;;;;;;;12.77;45.65;101848.91;4859061;29;19923;-74
2021/10/02 10:01:04;;;;;;;;;;;;;;;12.58;45.85;101850.41;4876469;29;19931;-76
2021/10/02 10:03:46;;;;;;;;;;;;;;;12.56;45.13;101850.34;4874816;29;19927;-75
2021/10/02 10:06:19;;;;;;;;;;;;;;;12.60;46.13;101846.94;4874899;29;19935;-77
2021/10/02 10:09:00;;;;;;;;;;;;;;;12.89;46.13;101843.91;4872138;29;19975;-76
2021/10/02 10:11:38;;;;;;;;;;;;;;;13.14;45.70;101849.44;4874959;29;20391;-75
2021/10/02 10:14:04;;;;;;;;;;;;;;;13.27;45.20;101847.84;4875737;29;20553;-75
2021/10/02 10:16:37;;;;;;;;;;;;;;;13.17;44.85;101846.84;4873009;29;19935;-76
2021/10/02 10:19:22;;;;;;;;;;;;;;;13.17;45.34;101846.84;4874094;29;19923;-74
2021/10/02 10:22:03;;;;;;;;;;;;;;;13.16;45.28;101852.06;4873147;29;19923;-77
2021/10/02 10:24:28;;;;;;;;;;;;;;;13.23;45.18;101839.09;4855110;29;19938;-74
2021/10/02 10:26:57;;;;;;;;;;;;;;;12.98;44.46;101842.25;4876765;29;20018;-74
2021/10/02 10:29:42;;;;;;;;;;;;;;;12.92;45.69;101846.53;4876546;29;19931;-76
2021/10/02 10:32:09;;;;;;;;;;;;;;;12.88;45.28;101836.91;4874735;29;20451;-74
2021/10/02 10:34:38;;;;;;;;;;;;;;;12.78;45.58;101835.91;4843208;29;19936;-76
2021/10/02 10:37:04;;;;;;;;;;;;;;;12.89;45.42;101829.94;4874421;29;20502;-76
2021/10/02 10:39:30;;;;;;;;;;;;;;;12.87;45.68;101822.09;4858553;29;20385;-74
2021/10/02 10:41:56;;;;;;;;;;;;;;;12.93;45.82;101822.16;4874337;29;19924;-74
2021/10/02 10:44:22;;;;;;;;;;;;;;;13.05;45.71;101825.81;4875094;29;19924;-77
2021/10/02 10:46:48;;;;;;;;;;;;;;;13.29;45.44;101825.22;4874924;29;20053;-75
2021/10/02 10:49:15;;;;;;;;;;;;;;;13.44;44.23;101823.69;4878357;29;19998;-75
2021/10/02 10:51:42;;;;;;;;;;;;;;;13.41;45.16;101827.13;4844186;29;19958;-78
2021/10/02 10:54:14;;;;;;;;;;;;;;;13.57;44.96;101822.97;4875792;29;19931;-78
2021/10/02 10:56:43;;;;;;;;;;;;;;;13.44;44.16;101821.09;4890835;29;19924;-76
2021/10/02 10:59:09;;;;;;;;;;;;;;;13.60;45.08;101816.88;4892622;29;19927;-77
2021/10/02 11:01:39;;;;;;;;;;;;;;;13.79;44.53;101824.03;4893053;29;19970;-76
2021/10/02 11:04:06;;;;;;;;;;;;;;;13.80;44.42;101824.94;4861152;29;19923;-78
2021/10/02 11:06:49;;;;;;;;;;;;;;;13.70;44.52;101821.34;4877420;29;20439;-77
2021/10/02 11:09:15;;;;;;;;;;;;;;;13.86;44.62;101819.78;4874403;29;19932;-78
2021/10/02 11:11:43;;;;;;;;;;;;;;;14.05;44.39;101819.94;4864153;29;19924;-76
2021/10/02 11:14:14;;;;;;;;;;;;;;;14.18;44.45;101815.69;4858455;29;19935;-77
2021/10/02 11:16:43;;;;;;;;;;;;;;;14.05;44.14;101817.31;4858576;29;19931;-76
2021/10/02 11:19:29;;;;;;;;;;;;;;;13.94;44.24;101818.09;4890083;29;19927;-76
2021/10/02 11:22:03;;;;;;;;;;;;;;;13.92;44.61;101813.72;4855073;29;19931;-77
2021/10/02 11:24:35;;;;;;;;;;;;;;;13.75;44.37;101821.41;4872409;29;21384;-77
2021/10/02 11:27:01;;;;;;;;;;;;;;;13.53;44.02;101816.81;4873687;29;20344;-77
2021/10/02 11:29:32;;;;;;;;;;;;;;;13.14;44.52;101817.19;4872606;29;20036;-75
2021/10/02 11:32:16;;;;;;;;;;;;;;;13.19;45.53;101815.53;4871902;29;19924;-79
2021/10/02 11:35:00;;;;;;;;;;;;;;;13.34;45.36;101815.69;4886439;29;20396;-76
2021/10/02 11:37:39;;;;;;;;;;;;;;;13.42;43.99;101813.19;4870513;29;19934;-77
2021/10/02 11:40:24;;;;;;;;;;;;;;;13.51;45.04;101810.69;4873172;29;20621;-76
2021/10/02 11:45:45;;;;;;;;;;;;;;;13.29;44.89;101812.16;4861373;29;19940;-76
2021/10/02 11:48:18;;;;;;;;;;;;;;;13.28;44.96;101812.13;4879389;29;19924;-79
2021/10/02 11:51:13;;;;;;;;;;;;;;;13.39;45.45;101808.78;4893130;29;19923;-77
2021/10/02 11:53:46;;;;;;;;;;;;;;;13.59;44.68;101802.94;4854986;29;19931;-78
2021/10/02 11:56:13;;;;;;;;;;;;;;;13.56;44.18;101805.50;4873950;29;19943;-78
2021/10/02 11:58:40;;;;;;;;;;;;;;;13.69;44.56;101799.53;4878820;29;19930;-79
2021/10/02 12:01:06;;;;;;;;;;;;;;;13.86;44.12;101798.84;4880796;29;19930;-79
2021/10/02 12:03:35;;;;;;;;;;;;;;;13.61;44.35;101795.97;4878755;29;19923;-77
2021/10/02 12:06:02;;;;;;;;;;;;;;;13.51;44.72;101800.25;4878695;29;19946;-78
2021/10/02 12:08:28;;;;;;;;;;;;;;;13.61;44.58;101800.31;4877167;29;20018;-76
2021/10/02 12:10:57;;;;;;;;;;;;;;;13.63;44.66;101793.38;4879133;29;20392;-77
2021/10/02 12:13:33;;;;;;;;;;;;;;;13.56;44.46;101795.06;4873351;29;19970;-76
2021/10/02 12:16:00;;;;;;;;;;;;;;;13.47;44.51;101795.84;4860268;29;19927;-77
2021/10/02 12:18:41;;;;;;;;;;;;;;;13.51;44.74;101796.72;4877830;29;19963;-77
2021/10/02 12:21:06;;;;;;;;;;;;;;;13.63;44.72;101790.75;4858140;29;20019;-76
2021/10/02 12:23:32;;;;;;;;;;;;;;;13.54;44.67;101786.31;4883944;29;19963;-78
2021/10/02 12:26:02;;;;;;;;;;;;;;;13.53;44.19;101790.69;4881291;29;19953;-77
2021/10/02 12:28:27;;;;;;;;;;;;;;;13.30;43.64;101787.75;4897726;29;19915;-78
2021/10/02 12:30:53;;;;;;;;;;;;;;;13.15;45.01;101788.44;4896238;29;19928;-78
2021/10/02 12:33:21;;;;;;;;;;;;;;;13.16;45.20;101786.72;4898447;29;19924;-77
2021/10/02 12:35:47;;;;;;;;;;;;;;;13.16;45.04;101784.97;4898135;29;19936;-76
2021/10/02 12:38:12;;;;;;;;;;;;;;;12.91;44.92;101784.66;4898189;29;19984;-77
2021/10/02 12:40:38;;;;;;;;;;;;;;;12.75;45.16;101788.84;4896139;29;19972;-77
2021/10/02 12:43:04;;;;;;;;;;;;;;;12.65;45.06;101776.50;4877000;29;19979;-76
2021/10/02 12:45:31;;;;;;;;;;;;;;;12.61;45.65;101780.81;4875285;29;20014;-77
2021/10/02 12:48:02;;;;;;;;;;;;;;;12.63;44.92;101780.81;4880115;29;19949;-79
2021/10/02 12:50:35;;;;;;;;;;;;;;;12.40;45.38;101773.50;4881472;29;19930;-78
2021/10/02 12:53:01;;;;;;;;;;;;;;;12.24;45.97;101780.25;4865465;29;20031;-77
2021/10/02 12:55:27;;;;;;;;;;;;;;;12.35;46.02;101773.47;4874561;29;20026;-78
2021/10/02 12:57:53;;;;;;;;;;;;;;;12.38;45.00;101776.97;4875237;29;19971;-77
2021/10/02 13:00:29;;;;;;;;;;;;;;;12.14;46.04;101779.19;4879115;29;19963;-76
2021/10/02 13:02:56;;;;;;;;;;;;;;;12.26;46.21;101767.22;4877717;29;19935;-77
2021/10/02 13:05:23;;;;;;;;;;;;;;;12.33;46.17;101771.69;4844806;29;19927;-74
2021/10/02 13:07:58;;;;;;;;;;;;;;;12.16;45.37;101774.03;4875629;29;19975;-76
2021/10/02 13:10:27;;;;;;;;;;;;;;;12.10;46.49;101766.09;4877555;29;19924;-77
2021/10/02 13:12:58;;;;;;;;;;;;;;;12.12;45.86;101767.00;4876626;29;20965;-77
2021/10/02 13:15:29;;;;;;;;;;;;;;;12.12;46.50;101764.38;4870837;29;19927;-76
2021/10/02 13:18:00;;;;;;;;;;;;;;;12.15;46.18;101761.81;4874390;29;19927;-76
2021/10/02 13:20:26;;;;;;;;;;;;;;;12.10;46.46;101763.47;4876313;29;19930;-77
2021/10/02 13:22:52;;;;;;;;;;;;;;;12.17;46.45;101763.59;4875303;29;19966;-77
2021/10/02 13:25:24;;;;;;;;;;;;;;;12.07;46.56;101763.44;4873711;29;19970;-78
2021/10/02 13:27:54;;;;;;;;;;;;;;;12.00;46.51;101754.63;4871506;29;19978;-78
2021/10/02 13:30:21;;;;;;;;;;;;;;;12.04;46.59;101753.81;4873791;29;20050;-77
2021/10/02 13:33:01;;;;;;;;;;;;;;;11.96;46.28;101755.38;4882731;29;19924;-77
2021/10/02 13:35:28;;;;;;;;;;;;;;;11.77;46.72;101756.81;4857490;29;19928;-79
2021/10/02 13:37:54;;;;;;;;;;;;;;;11.72;46.63;101751.50;4878369;29;19930;-77
2021/10/02 13:40:27;;;;;;;;;;;;;;;11.77;46.94;101752.47;4859658;29;20006;-78
2021/10/02 13:42:53;;;;;;;;;;;;;;;11.61;46.54;101751.31;4877557;29;19928;-76
2021/10/02 13:45:26;;;;;;;;;;;;;;;11.48;46.97;101760.66;4873099;29;19930;-77
2021/10/02 13:47:56;;;;;;;;;;;;;;;11.48;47.39;101755.44;4858276;29;19988;-78